createdAt,value
2023-04-30T00:01:01.614Z,102235.41
2023-04-30T00:03:30.841Z,102229.97
2023-04-30T00:05:57.883Z,102225.47
2023-04-30T00:08:24.876Z,102224.25
2023-04-30T00:10:51.898Z,102231.03
2023-04-30T00:13:19.127Z,102230.88
2023-04-30T00:15:46.213Z,102238.75
2023-04-30T00:18:13.753Z,102231.78
2023-04-30T00:20:40.760Z,102230.69
2023-04-30T00:23:07.740Z,102239.50
2023-04-30T00:25:35.499Z,102234.59
2023-04-30T00:28:02.470Z,102234.75
2023-04-30T00:30:29.444Z,102237.44
2023-04-30T00:32:56.571Z,102236.53
2023-04-30T00:35:23.574Z,102231.78
2023-04-30T00:37:50.566Z,102233.84
2023-04-30T00:40:17.780Z,102231.97
2023-04-30T00:42:44.738Z,102237.78
2023-04-30T00:45:11.976Z,102239.66
2023-04-30T00:47:39.132Z,102228.97
2023-04-30T00:50:07.004Z,102231.97
2023-04-30T00:52:33.969Z,102230.88
2023-04-30T00:55:01.097Z,102234.59
2023-04-30T00:57:29.295Z,102235.72
2023-04-30T00:59:56.665Z,102231.16
2023-04-30T01:02:24.559Z,102229.72
2023-04-30T01:04:52.646Z,102238.69
2023-04-30T01:07:19.743Z,102233.81
2023-04-30T01:09:46.899Z,102233.00
2023-04-30T01:13:17.548Z,102234.19
2023-04-30T01:16:15.478Z,102244.00
2023-04-30T01:18:57.927Z,102239.03
2023-04-30T01:21:26.160Z,102241.22
2023-04-30T01:24:07.113Z,102233.00
2023-04-30T01:27:07.395Z,102239.81
2023-04-30T01:29:36.491Z,102238.84
2023-04-30T01:32:03.739Z,102245.56
2023-04-30T01:34:30.800Z,102240.63
2023-04-30T01:37:31.945Z,102233.13
2023-04-30T01:40:22.186Z,102237.28
2023-04-30T01:43:23.616Z,102233.53
2023-04-30T01:46:08.671Z,102237.81
2023-04-30T01:48:56.219Z,102243.84
2023-04-30T01:51:43.028Z,102242.63
2023-04-30T01:54:18.189Z,102245.75
2023-04-30T01:57:21.620Z,102243.22
2023-04-30T01:59:48.735Z,102255.31
2023-04-30T02:02:15.778Z,102259.56
2023-04-30T02:04:42.908Z,102243.94
2023-04-30T02:07:09.980Z,102252.44
2023-04-30T02:09:37.138Z,102255.56
2023-04-30T02:12:05.099Z,102253.16
2023-04-30T02:14:32.249Z,102258.66
2023-04-30T02:16:59.320Z,102254.50
2023-04-30T02:19:26.278Z,102252.19
2023-04-30T02:21:53.242Z,102257.44
2023-04-30T02:24:20.315Z,102265.19
2023-04-30T02:26:47.289Z,102255.16
2023-04-30T02:29:14.260Z,102255.06
2023-04-30T02:31:41.326Z,102258.50
2023-04-30T02:34:08.351Z,102254.91
2023-04-30T02:36:36.705Z,102251.97
2023-04-30T02:39:03.838Z,102257.28
2023-04-30T02:41:30.941Z,102259.16
2023-04-30T02:43:57.884Z,102260.97
2023-04-30T02:46:25.045Z,102256.56
2023-04-30T02:48:52.029Z,102261.44
2023-04-30T02:51:19.016Z,102261.09
2023-04-30T02:53:45.954Z,102259.31
2023-04-30T02:56:12.910Z,102257.34
2023-04-30T02:58:39.878Z,102266.19
2023-04-30T03:01:06.973Z,102264.94
2023-04-30T03:03:34.125Z,102260.47
2023-04-30T03:06:01.214Z,102262.19
2023-04-30T03:08:28.216Z,102269.28
2023-04-30T03:10:55.339Z,102265.75
2023-04-30T03:13:22.389Z,102265.84
2023-04-30T03:15:49.340Z,102268.13
2023-04-30T03:18:16.375Z,102271.25
2023-04-30T03:20:43.368Z,102267.81
2023-04-30T03:23:10.336Z,102269.44
2023-04-30T03:25:37.341Z,102270.75
2023-04-30T03:28:04.579Z,102262.63
2023-04-30T03:30:31.642Z,102261.56
2023-04-30T03:32:58.762Z,102266.56
2023-04-30T03:35:26.015Z,102261.25
2023-04-30T03:37:53.189Z,102257.66
2023-04-30T03:40:20.400Z,102264.34
2023-04-30T03:42:48.762Z,102268.41
2023-04-30T03:45:17.224Z,102275.28
2023-04-30T03:47:44.428Z,102272.22
2023-04-30T03:50:12.039Z,102269.97
2023-04-30T03:52:39.067Z,102275.22
2023-04-30T03:55:12.980Z,102277.00
2023-04-30T03:57:43.352Z,102278.81
2023-04-30T04:00:12.154Z,102281.59
2023-04-30T04:02:39.932Z,102273.28
2023-04-30T04:07:49.166Z,102273.91
2023-04-30T04:10:16.256Z,102274.28
2023-04-30T04:12:43.483Z,102270.84
2023-04-30T04:15:11.063Z,102271.56
2023-04-30T04:17:38.280Z,102268.03
2023-04-30T04:20:06.542Z,102261.09
2023-04-30T04:22:33.513Z,102269.00
2023-04-30T04:25:00.740Z,102267.63
2023-04-30T04:27:27.810Z,102278.06
2023-04-30T04:29:55.054Z,102276.53
2023-04-30T04:32:22.966Z,102280.59
2023-04-30T04:34:50.158Z,102282.41
2023-04-30T04:37:17.657Z,102277.66
2023-04-30T04:39:45.181Z,102275.69
2023-04-30T04:42:12.529Z,102278.13
2023-04-30T04:44:39.549Z,102281.66
2023-04-30T04:47:06.635Z,102289.13
2023-04-30T04:49:33.573Z,102293.44
2023-04-30T04:52:02.044Z,102287.69
2023-04-30T04:54:29.080Z,102291.34
2023-04-30T04:56:56.100Z,102287.03
2023-04-30T04:59:23.049Z,102289.81
2023-04-30T05:01:50.062Z,102292.00
2023-04-30T05:04:17.113Z,102284.69
2023-04-30T05:06:44.215Z,102293.50
2023-04-30T05:09:11.622Z,102294.81
2023-04-30T05:11:38.891Z,102291.94
2023-04-30T05:14:05.981Z,102290.28
2023-04-30T05:16:33.007Z,102290.72
2023-04-30T05:19:00.018Z,102295.47
2023-04-30T05:21:29.775Z,102297.78
2023-04-30T05:23:56.793Z,102291.81
2023-04-30T05:26:27.056Z,102294.38
2023-04-30T05:28:54.183Z,102289.22
2023-04-30T05:31:21.560Z,102288.25
2023-04-30T05:33:48.786Z,102288.50
2023-04-30T05:36:15.828Z,102296.44
2023-04-30T05:38:42.839Z,102296.03
2023-04-30T05:41:13.069Z,102295.47
2023-04-30T05:43:40.152Z,102287.50
2023-04-30T05:46:07.253Z,102290.53
2023-04-30T05:48:34.319Z,102302.69
2023-04-30T05:51:01.412Z,102289.16
2023-04-30T05:53:28.405Z,102288.09
2023-04-30T05:55:55.534Z,102292.84
2023-04-30T05:58:22.589Z,102301.00
2023-04-30T06:00:51.976Z,102292.81
2023-04-30T06:03:20.289Z,102291.44
2023-04-30T06:05:47.818Z,102293.78
2023-04-30T06:08:14.843Z,102294.22
2023-04-30T06:10:42.396Z,102290.19
2023-04-30T06:13:09.422Z,102299.53
2023-04-30T06:15:36.637Z,102296.41
2023-04-30T06:18:03.808Z,102290.59
2023-04-30T06:20:30.859Z,102287.63
2023-04-30T06:22:57.865Z,102290.56
2023-04-30T06:25:24.870Z,102288.38
2023-04-30T06:27:54.129Z,102283.63
2023-04-30T06:30:21.229Z,102283.97
2023-04-30T06:32:48.253Z,102283.81
2023-04-30T06:35:15.668Z,102289.53
2023-04-30T06:37:42.834Z,102291.44
2023-04-30T06:40:10.160Z,102280.00
2023-04-30T06:42:37.169Z,102285.97
2023-04-30T06:45:07.776Z,102291.66
2023-04-30T06:47:36.459Z,102295.50
2023-04-30T06:50:05.191Z,102288.78
2023-04-30T06:52:32.340Z,102287.09
2023-04-30T06:54:59.448Z,102295.47
2023-04-30T06:57:27.357Z,102294.00
2023-04-30T06:59:55.350Z,102292.00
2023-04-30T07:02:22.559Z,102295.06
2023-04-30T07:04:49.644Z,102280.72
2023-04-30T07:07:16.607Z,102275.66
2023-04-30T07:09:43.600Z,102269.66
2023-04-30T07:12:12.142Z,102272.34
2023-04-30T07:14:39.423Z,102272.88
2023-04-30T07:17:06.413Z,102270.56
2023-04-30T07:19:33.527Z,102263.50
2023-04-30T07:22:00.554Z,102262.75
2023-04-30T07:24:27.781Z,102253.25
2023-04-30T07:26:54.854Z,102267.84
2023-04-30T07:29:22.361Z,102259.06
2023-04-30T07:31:49.371Z,102259.19
2023-04-30T07:34:16.431Z,102264.78
2023-04-30T07:36:43.673Z,102257.19
2023-04-30T07:39:11.834Z,102256.16
2023-04-30T07:41:38.905Z,102244.16
2023-04-30T07:44:06.413Z,102250.97
2023-04-30T07:46:33.475Z,102237.78
2023-04-30T07:49:00.687Z,102244.44
2023-04-30T07:51:27.879Z,102236.97
2023-04-30T07:53:55.233Z,102237.63
2023-04-30T07:56:22.243Z,102237.31
2023-04-30T07:58:49.225Z,102239.97
2023-04-30T08:01:16.687Z,102251.50
2023-04-30T08:03:43.712Z,102242.69
2023-04-30T08:06:10.815Z,102251.72
2023-04-30T08:08:38.063Z,102247.47
2023-04-30T08:11:05.406Z,102245.72
2023-04-30T08:13:32.452Z,102243.59
2023-04-30T08:15:59.501Z,102236.19
2023-04-30T08:18:26.477Z,102237.53
2023-04-30T08:20:53.563Z,102234.19
2023-04-30T08:23:20.630Z,102234.78
2023-04-30T08:25:47.580Z,102233.31
2023-04-30T08:28:14.555Z,102227.31
2023-04-30T08:30:41.712Z,102233.09
2023-04-30T08:33:08.787Z,102231.69
2023-04-30T08:35:35.927Z,102230.13
2023-04-30T08:38:02.975Z,102225.72
2023-04-30T08:40:49.472Z,102227.91
2023-04-30T08:43:20.565Z,102223.13
2023-04-30T08:45:48.791Z,102223.19
2023-04-30T08:48:16.982Z,102216.94
2023-04-30T08:50:44.126Z,102212.91
2023-04-30T08:53:12.707Z,102209.34
2023-04-30T08:55:41.615Z,102214.19
2023-04-30T08:58:10.794Z,102216.09
2023-04-30T09:00:39.926Z,102216.38
2023-04-30T09:03:08.549Z,102212.59
2023-04-30T09:05:37.075Z,102213.63
2023-04-30T09:08:04.713Z,102204.56
2023-04-30T09:10:36.108Z,102198.75
2023-04-30T09:13:09.551Z,102193.72
2023-04-30T09:15:39.260Z,102197.47
2023-04-30T09:18:18.330Z,102198.41
2023-04-30T09:21:03.102Z,102195.84
2023-04-30T09:23:31.120Z,102191.50
2023-04-30T09:25:58.038Z,102199.78
2023-04-30T09:28:25.457Z,102194.50
2023-04-30T09:30:53.740Z,102184.69
2023-04-30T09:33:20.924Z,102186.53
2023-04-30T09:35:47.947Z,102179.41
2023-04-30T09:38:33.457Z,102192.06
2023-04-30T09:41:01.801Z,102179.59
2023-04-30T09:43:31.860Z,102180.50
2023-04-30T09:46:00.497Z,102181.44
2023-04-30T09:48:28.441Z,102177.91
2023-04-30T09:50:56.095Z,102178.06
2023-04-30T09:53:24.235Z,102174.47
2023-04-30T09:55:52.113Z,102171.09
2023-04-30T09:58:20.144Z,102171.94
2023-04-30T10:00:50.537Z,102170.16
2023-04-30T10:03:18.821Z,102173.78
2023-04-30T10:05:48.946Z,102167.47
2023-04-30T10:08:34.104Z,102159.50
2023-04-30T10:11:07.228Z,102166.69
2023-04-30T10:13:55.735Z,102161.38
2023-04-30T10:16:52.093Z,102158.66
2023-04-30T10:19:41.742Z,102155.16
2023-04-30T10:22:09.426Z,102158.75
2023-04-30T10:24:38.031Z,102164.16
2023-04-30T10:27:05.043Z,102153.44
2023-04-30T10:29:32.472Z,102156.16
2023-04-30T10:32:01.246Z,102153.44
2023-04-30T10:34:34.266Z,102155.28
2023-04-30T10:37:13.312Z,102150.88
2023-04-30T10:39:40.689Z,102146.44
2023-04-30T10:42:10.455Z,102140.19
2023-04-30T10:44:38.329Z,102141.97
2023-04-30T10:47:07.754Z,102138.44
2023-04-30T10:49:35.129Z,102130.44
2023-04-30T10:52:05.854Z,102126.03
2023-04-30T10:54:36.082Z,102120.66
2023-04-30T10:57:14.153Z,102122.47
2023-04-30T10:59:53.628Z,102114.44
2023-04-30T11:02:21.339Z,102098.34
2023-04-30T11:05:22.246Z,102102.84
2023-04-30T11:07:58.407Z,102100.13
2023-04-30T11:10:32.458Z,102107.25
2023-04-30T11:13:03.408Z,102096.56
2023-04-30T11:15:45.889Z,102089.34
2023-04-30T11:18:13.941Z,102094.75
2023-04-30T11:20:49.214Z,102084.03
2023-04-30T11:23:28.139Z,102088.53
2023-04-30T11:26:07.150Z,102076.00
2023-04-30T11:28:37.680Z,102072.44
2023-04-30T11:31:05.297Z,102074.13
2023-04-30T11:33:34.043Z,102080.38
2023-04-30T11:36:02.312Z,102064.44
2023-04-30T11:38:34.629Z,102057.16
2023-04-30T11:41:05.476Z,102059.97
2023-04-30T11:43:34.712Z,102053.50
2023-04-30T11:46:08.504Z,102053.47
2023-04-30T11:48:41.327Z,102060.59
2023-04-30T11:51:21.968Z,102052.59
2023-04-30T11:53:51.870Z,102044.56
2023-04-30T11:56:24.492Z,102046.44
2023-04-30T11:58:56.080Z,102042.06
2023-04-30T12:01:27.758Z,102041.97
2023-04-30T12:03:57.550Z,102040.97
2023-04-30T12:06:27.616Z,102036.59
2023-04-30T12:08:56.911Z,102035.47
2023-04-30T12:11:29.617Z,102039.06
2023-04-30T12:14:16.711Z,102023.72
2023-04-30T12:16:50.093Z,102024.63
2023-04-30T12:19:25.196Z,102024.84
2023-04-30T12:21:55.111Z,102032.81
2023-04-30T12:24:23.612Z,102025.78
2023-04-30T12:26:54.212Z,102016.91
2023-04-30T12:29:23.207Z,102025.78
2023-04-30T12:31:51.918Z,102022.88
2023-04-30T12:34:19.073Z,102017.25
2023-04-30T12:36:46.030Z,102009.22
2023-04-30T12:39:18.040Z,102017.13
2023-04-30T12:41:48.021Z,102002.63
2023-04-30T12:44:24.837Z,101993.72
2023-04-30T12:46:56.439Z,101997.16
2023-04-30T12:49:33.539Z,101995.44
2023-04-30T12:52:12.451Z,101997.38
2023-04-30T12:54:40.415Z,101997.53
2023-04-30T12:57:10.972Z,101990.31
2023-04-30T13:00:00.321Z,101993.97
2023-04-30T13:02:33.634Z,101993.09
2023-04-30T13:05:00.733Z,101983.16
2023-04-30T13:07:36.308Z,101972.34
2023-04-30T13:10:03.960Z,101976.28
2023-04-30T13:12:31.192Z,101974.41
2023-04-30T13:14:59.307Z,101974.03
2023-04-30T13:17:26.564Z,101961.38
2023-04-30T13:19:53.869Z,101959.41
2023-04-30T13:22:21.225Z,101958.72
2023-04-30T13:24:48.233Z,101951.56
2023-04-30T13:27:15.206Z,101959.75
2023-04-30T13:29:42.203Z,101963.38
2023-04-30T13:32:10.131Z,101954.53
2023-04-30T13:34:37.193Z,101951.03
2023-04-30T13:37:04.740Z,101951.00
2023-04-30T13:39:31.687Z,101944.72
2023-04-30T13:41:58.731Z,101946.41
2023-04-30T13:44:25.766Z,101950.38
2023-04-30T13:46:52.742Z,101940.84
2023-04-30T13:49:19.770Z,101940.91
2023-04-30T13:51:46.802Z,101933.50
2023-04-30T13:54:13.784Z,101941.06
2023-04-30T13:56:40.998Z,101946.63
2023-04-30T13:59:08.304Z,101930.53
2023-04-30T14:01:35.307Z,101934.16
2023-04-30T14:04:02.582Z,101925.41
2023-04-30T14:06:29.747Z,101927.69
2023-04-30T14:08:56.872Z,101922.06
2023-04-30T14:11:23.889Z,101925.66
2023-04-30T14:13:50.850Z,101927.38
2023-04-30T14:16:19.602Z,101915.94
2023-04-30T14:18:47.575Z,101919.03
2023-04-30T14:21:14.527Z,101910.25
2023-04-30T14:23:41.725Z,101911.34
2023-04-30T14:26:09.240Z,101911.66
2023-04-30T14:28:36.277Z,101909.47
2023-04-30T14:31:03.887Z,101909.72
2023-04-30T14:33:32.232Z,101905.19
2023-04-30T14:36:02.883Z,101905.09
2023-04-30T14:38:29.858Z,101893.69
2023-04-30T14:40:56.894Z,101898.75
2023-04-30T14:43:23.880Z,101892.47
2023-04-30T14:45:52.357Z,101888.91
2023-04-30T14:48:19.549Z,101890.44
2023-04-30T14:50:46.577Z,101886.03
2023-04-30T14:53:14.190Z,101887.56
2023-04-30T14:55:41.623Z,101888.88
2023-04-30T14:58:08.590Z,101885.72
2023-04-30T15:00:35.533Z,101891.09
2023-04-30T15:03:02.615Z,101891.19
2023-04-30T15:05:30.117Z,101884.91
2023-04-30T15:07:57.130Z,101882.91
2023-04-30T15:10:24.148Z,101877.28
2023-04-30T15:12:51.486Z,101869.31
2023-04-30T15:15:19.035Z,101863.09
2023-04-30T15:17:46.166Z,101867.34
2023-04-30T15:20:13.267Z,101866.88
2023-04-30T15:22:40.634Z,101854.31
2023-04-30T15:25:08.883Z,101858.66
2023-04-30T15:27:36.844Z,101857.56
2023-04-30T15:30:04.600Z,101850.22
2023-04-30T15:32:31.639Z,101855.81
2023-04-30T15:34:58.574Z,101846.19
2023-04-30T15:37:25.702Z,101841.34
2023-04-30T15:39:53.091Z,101851.31
2023-04-30T15:42:20.616Z,101840.63
2023-04-30T15:44:47.623Z,101838.97
2023-04-30T15:47:14.647Z,101832.75
2023-04-30T15:49:41.621Z,101836.22
2023-04-30T15:52:08.574Z,101838.13
2023-04-30T15:54:35.758Z,101833.97
2023-04-30T15:57:04.286Z,101829.66
2023-04-30T15:59:31.256Z,101834.31
2023-04-30T16:01:58.369Z,101835.31
2023-04-30T16:04:25.490Z,101832.34
2023-04-30T16:06:52.760Z,101833.97
2023-04-30T16:09:20.501Z,101833.06
2023-04-30T16:11:48.410Z,101836.47
2023-04-30T16:14:15.646Z,101829.53
2023-04-30T16:16:42.840Z,101825.81
2023-04-30T16:19:12.309Z,101824.09
2023-04-30T16:21:40.074Z,101818.00
2023-04-30T16:24:08.831Z,101822.47
2023-04-30T16:26:36.256Z,101816.53
2023-04-30T16:29:04.380Z,101812.97
2023-04-30T16:31:32.406Z,101809.41
2023-04-30T16:33:59.407Z,101812.22
2023-04-30T16:36:26.382Z,101804.25
2023-04-30T16:38:53.496Z,101805.94
2023-04-30T16:41:21.516Z,101798.81
2023-04-30T16:43:48.482Z,101796.38
2023-04-30T16:46:15.573Z,101798.22
2023-04-30T16:48:42.830Z,101796.41
2023-04-30T16:51:09.858Z,101801.75
2023-04-30T16:53:36.821Z,101801.66
2023-04-30T16:56:04.071Z,101795.38
2023-04-30T16:58:31.568Z,101800.00
2023-04-30T17:00:59.222Z,101794.78
2023-04-30T17:03:26.564Z,101794.84
2023-04-30T17:05:53.581Z,101790.38
2023-04-30T17:08:21.182Z,101787.06
2023-04-30T17:10:48.397Z,101782.69
2023-04-30T17:13:15.583Z,101779.22
2023-04-30T17:15:43.300Z,101776.63
2023-04-30T17:18:11.877Z,101779.38
2023-04-30T17:20:39.322Z,101774.09
2023-04-30T17:23:06.538Z,101778.41
2023-04-30T17:25:33.773Z,101775.84
2023-04-30T17:28:01.554Z,101771.53
2023-04-30T17:30:29.263Z,101766.22
2023-04-30T17:32:56.786Z,101772.44
2023-04-30T17:35:23.925Z,101763.53
2023-04-30T17:37:50.908Z,101763.69
2023-04-30T17:40:17.973Z,101763.69
2023-04-30T17:42:45.231Z,101766.31
2023-04-30T17:45:12.187Z,101772.53
2023-04-30T17:47:39.266Z,101760.19
2023-04-30T17:50:08.547Z,101762.03
2023-04-30T17:52:38.522Z,101763.81
2023-04-30T17:55:08.326Z,101759.41
2023-04-30T17:57:36.221Z,101767.50
2023-04-30T18:00:05.095Z,101763.97
2023-04-30T18:02:33.079Z,101760.47
2023-04-30T18:05:00.123Z,101758.75
2023-04-30T18:07:27.139Z,101761.47
2023-04-30T18:09:54.553Z,101767.72
2023-04-30T18:12:21.801Z,101764.16
2023-04-30T18:14:48.845Z,101761.56
2023-04-30T18:17:16.503Z,101758.03
2023-04-30T18:19:44.770Z,101754.47
2023-04-30T18:22:12.455Z,101753.63
2023-04-30T18:24:40.198Z,101750.13
2023-04-30T18:27:07.752Z,101759.00
2023-04-30T18:29:35.485Z,101766.13
2023-04-30T18:32:02.694Z,101759.94
2023-04-30T18:34:29.719Z,101762.59
2023-04-30T18:36:57.123Z,101757.31
2023-04-30T18:39:24.172Z,101759.94
2023-04-30T18:41:52.015Z,101747.53
2023-04-30T18:44:28.169Z,101749.31
2023-04-30T18:46:55.790Z,101758.22
2023-04-30T18:49:22.832Z,101752.88
2023-04-30T18:51:49.798Z,101752.00
2023-04-30T18:54:17.513Z,101748.47
2023-04-30T18:56:45.320Z,101759.06
2023-04-30T18:59:12.467Z,101747.53
2023-04-30T19:01:39.507Z,101748.44
2023-04-30T19:04:06.652Z,101747.53
2023-04-30T19:06:34.496Z,101751.00
2023-04-30T19:09:01.607Z,101762.53
2023-04-30T19:11:28.623Z,101754.56
2023-04-30T19:13:55.710Z,101751.00
2023-04-30T19:16:22.796Z,101750.06
2023-04-30T19:18:49.840Z,101757.16
2023-04-30T19:21:16.974Z,101757.13
2023-04-30T19:23:44.022Z,101757.13
2023-04-30T19:26:10.982Z,101763.25
2023-04-30T19:28:37.994Z,101765.00
2023-04-30T19:31:06.085Z,101762.31
2023-04-30T19:33:38.385Z,101767.56
2023-04-30T19:36:05.809Z,101769.28
2023-04-30T19:38:32.782Z,101769.22
2023-04-30T19:41:01.182Z,101762.09
2023-04-30T19:43:28.272Z,101764.63
2023-04-30T19:45:57.532Z,101769.94
2023-04-30T19:48:26.097Z,101767.16
2023-04-30T19:50:53.759Z,101771.63
2023-04-30T19:53:21.816Z,101767.09
2023-04-30T19:55:48.978Z,101771.47
2023-04-30T19:58:15.997Z,101767.75
2023-04-30T20:00:45.433Z,101771.16
2023-04-30T20:03:14.558Z,101770.94
2023-04-30T20:05:42.269Z,101775.31
2023-04-30T20:08:09.642Z,101772.59
2023-04-30T20:10:38.311Z,101772.44
2023-04-30T20:13:07.229Z,101771.47
2023-04-30T20:15:34.231Z,101766.09
2023-04-30T20:18:01.663Z,101764.41
2023-04-30T20:20:29.600Z,101758.03
2023-04-30T20:22:57.326Z,101769.41
2023-04-30T20:25:34.213Z,101767.72
2023-04-30T20:28:01.377Z,101770.41
2023-04-30T20:30:28.747Z,101766.97
2023-04-30T20:32:56.076Z,101765.16
2023-04-30T20:35:23.738Z,101762.41
2023-04-30T20:37:54.580Z,101761.53
2023-04-30T20:40:22.067Z,101755.28
2023-04-30T20:42:49.066Z,101755.28
2023-04-30T20:45:16.190Z,101756.91
2023-04-30T20:47:43.326Z,101760.38
2023-04-30T20:50:10.576Z,101770.00
2023-04-30T20:52:37.884Z,101760.25
2023-04-30T20:55:05.443Z,101754.00
2023-04-30T20:57:32.419Z,101746.63
2023-04-30T20:59:59.805Z,101754.38
2023-04-30T21:02:27.826Z,101757.75
2023-04-30T21:04:54.922Z,101753.19
2023-04-30T21:07:21.846Z,101749.66
2023-04-30T21:09:48.912Z,101749.50
2023-04-30T21:12:15.877Z,101750.25
2023-04-30T21:14:42.926Z,101750.22
2023-04-30T21:17:09.917Z,101748.34
2023-04-30T21:19:36.893Z,101740.53
2023-04-30T21:22:04.401Z,101742.22
2023-04-30T21:24:31.602Z,101741.28
2023-04-30T21:27:00.069Z,101737.69
2023-04-30T21:29:27.142Z,101741.13
2023-04-30T21:31:56.199Z,101738.47
2023-04-30T21:34:23.282Z,101738.53
2023-04-30T21:36:51.181Z,101736.78
2023-04-30T21:39:18.322Z,101735.63
2023-04-30T21:41:45.483Z,101731.72
2023-04-30T21:44:12.512Z,101741.13
2023-04-30T21:46:39.701Z,101732.94
2023-04-30T21:49:07.031Z,101741.59
2023-04-30T21:51:34.757Z,101737.44
2023-04-30T21:54:01.887Z,101726.81
2023-04-30T21:56:29.050Z,101729.38
2023-04-30T21:58:56.083Z,101727.56
2023-04-30T22:01:27.509Z,101722.25
2023-04-30T22:03:54.794Z,101723.19
2023-04-30T22:06:22.022Z,101716.06
2023-04-30T22:08:48.991Z,101709.00
2023-04-30T22:11:16.341Z,101710.91
2023-04-30T22:13:43.419Z,101711.75
2023-04-30T22:16:11.146Z,101717.09
2023-04-30T22:18:38.350Z,101718.09
2023-04-30T22:21:05.579Z,101704.88
2023-04-30T22:23:32.553Z,101702.25
2023-04-30T22:26:00.161Z,101705.69
2023-04-30T22:28:27.420Z,101706.53
2023-04-30T22:31:00.501Z,101705.59
2023-04-30T22:33:27.550Z,101700.34
2023-04-30T22:35:55.273Z,101694.94
2023-04-30T22:38:22.298Z,101695.78
2023-04-30T22:40:49.312Z,101698.44
2023-04-30T22:43:16.488Z,101701.88
2023-04-30T22:45:43.647Z,101690.41
2023-04-30T22:48:10.957Z,101698.25
2023-04-30T22:50:38.637Z,101693.00
2023-04-30T22:53:06.053Z,101692.06
2023-04-30T22:55:33.376Z,101690.34
2023-04-30T22:58:01.669Z,101688.50
2023-04-30T23:00:29.262Z,101684.13
2023-04-30T23:02:56.716Z,101686.84
2023-04-30T23:05:23.724Z,101685.91
2023-04-30T23:07:50.661Z,101685.00
2023-04-30T23:10:17.949Z,101686.72
2023-04-30T23:12:44.927Z,101680.53
2023-04-30T23:15:12.427Z,101682.13
2023-04-30T23:17:39.601Z,101681.13
2023-04-30T23:20:07.967Z,101676.59
2023-04-30T23:22:34.979Z,101687.06
2023-04-30T23:25:01.987Z,101667.78
2023-04-30T23:27:29.619Z,101672.13
2023-04-30T23:29:56.777Z,101669.50
2023-04-30T23:32:24.040Z,101665.13
2023-04-30T23:34:51.155Z,101665.06
2023-04-30T23:37:18.126Z,101668.56
2023-04-30T23:39:45.116Z,101658.84
2023-04-30T23:42:12.067Z,101666.84
2023-04-30T23:44:39.068Z,101654.47
2023-04-30T23:47:06.701Z,101650.94
2023-04-30T23:49:33.758Z,101650.22
2023-04-30T23:52:00.778Z,101643.28
2023-04-30T23:54:28.231Z,101645.06
2023-04-30T23:56:55.484Z,101643.28
2023-04-30T23:59:25.273Z,101641.47
